Aviation Digital Data Service (ADDS)

Output produced by TAFs form (2112 UTC 09 December 2016)
found at http://aviationweather.gov/adds/tafs/
 
KTUS 091720Z 0918/1018 VRB04KT P6SM SCT250 
     FM092100 02006KT P6SM BKN250 
     FM100700 14006KT P6SM BKN250 
     FM101700 17003KT P6SM SCT250